Flight Track Log - Related Links

Times and Time Zones

All times are in EDT time to prevent confusion due to time zone crossing. See the ASQ4253 flight status page for this flight to view local times or setup timezone preferences in your user account.

Time Position Orientation Groundspeed Altitude Reporting Facility
EDT Latitude Longitude Course Direction KTS MPH feet Rate Location/Type
Wed 05:16:00 PM 33.8140 -81.2910 262° West  Level FlightAware Approximate
Wed 05:17:00 PM 33.8003 -81.4144 262° West  Level FlightAware Approximate
Wed 05:18:00 PM 33.7801 -81.5364 259° West  Level FlightAware Approximate
Wed 05:19:00 PM 33.7629 -81.6667 265° West  Level FlightAware Approximate
Wed 05:19:53 PM 33.7858 -81.5856 261° West 299 344 11,700  Level Jacksonville Center
Wed 05:20:00 PM 33.7527 -81.7982 265° West  Level FlightAware Approximate
Wed 05:21:00 PM 33.7342 -81.9283 259° West  Level FlightAware Approximate
Wed 05:21:30 PM 33.7228 -81.7461 245° Southwest 314 361 13,300  Level Atlanta Center
Wed 05:22:00 PM 33.7142 -82.0581 260° West  Level FlightAware Approximate
Wed 05:22:30 PM 33.6786 -81.8494 243° Southwest 336 387 14,400  Level Atlanta Center
Wed 05:23:00 PM 33.7000 -82.1886 270° West  Level FlightAware Approximate
Wed 05:23:30 PM 33.6325 -81.9556 242° Southwest 353 406 15,800  Level Atlanta Center
Wed 05:24:00 PM 33.7001 -82.3206 270° West  Level FlightAware Approximate
Wed 05:24:31 PM 33.5883 -82.0589 243° Southwest 353 406 17,300  Level Atlanta Center
Wed 05:25:30 PM 33.5442 -82.1644 243° Southwest 353 406 18,700 1,462 Climbing Atlanta Center
Wed 05:26:30 PM 33.5058 -82.2675 246° West 353 406 20,200 1,500 Climbing Atlanta Center
Wed 05:27:30 PM 33.5117 -82.3819 274° West 341 392 21,700 1,500 Climbing Atlanta Center
Wed 05:28:30 PM 33.5153 -82.4917 272° West 335 386 23,200 1,350 Climbing Atlanta Center
Wed 05:29:30 PM 33.5228 -82.5986 275° West 330 380 24,400 1,000 Climbing Atlanta Center
Wed 05:30:30 PM 33.5261 -82.7081 272° West 330 380 25,200 800 Climbing Atlanta Center
Wed 05:31:30 PM 33.5314 -82.8253 273° West 345 397 26,000 800 Climbing Atlanta Center
Wed 05:32:30 PM 33.5347 -82.9447 272° West 350 403 26,800 850 Climbing Atlanta Center
Wed 05:33:30 PM 33.5378 -83.0594 272° West 350 403 27,700 850 Climbing Atlanta Center
Wed 05:34:30 PM 33.5386 -83.1789 271° West 350 403 28,500 800 Climbing Atlanta Center
Wed 05:35:30 PM 33.5394 -83.2986 271° West 355 409 29,300 750 Climbing Atlanta Center
Wed 05:36:30 PM 33.5442 -83.4058 273° West 360 414 30,000 750 Climbing Atlanta Center
Wed 05:37:30 PM 33.5469 -83.5278 272° West 366 421 30,800 900 Climbing Atlanta Center
Wed 05:38:30 PM 33.5472 -83.6500 270° West 366 421 31,800 1,000 Climbing Atlanta Center
Wed 05:39:30 PM 33.5497 -83.7697 271° West 366 421 32,800 1,000 Climbing Atlanta Center
Wed 05:40:30 PM 33.5519 -83.8892 271° West 366 421 33,800 1,000 Climbing Atlanta Center
Wed 05:41:30 PM 33.5522 -84.0189 270° West 366 421 34,800 1,000 Climbing Atlanta Center
Wed 05:42:30 PM 33.5542 -84.1386 271° West 361 415 35,800 600 Climbing Atlanta Center
Wed 05:43:30 PM 33.5542 -84.2556 270° West 361 415 36,000 100 Climbing Atlanta Center
Wed 05:44:30 PM 33.5536 -84.3803 270° West 374 430 36,000  Level Atlanta Center
Wed 05:45:30 PM 33.5575 -84.5150 272° West 396 456 36,000  Level Atlanta Center
Wed 05:46:30 PM 33.5569 -84.6544 270° West 407 468 36,000  Level Atlanta Center
Wed 05:47:30 PM 33.5603 -84.7767 272° West 418 481 36,000  Level Atlanta Center
Wed 05:48:30 PM 33.5617 -84.9139 271° West 418 481 36,000  Level Atlanta Center
Wed 05:49:30 PM 33.5625 -85.0533 270° West 424 488 36,000  Level Atlanta Center
Wed 05:50:30 PM 33.5633 -85.1931 270° West 419 482 36,000  Level Atlanta Center
Wed 05:51:30 PM 33.5619 -85.3303 269° West 419 482 36,000  Level Atlanta Center
Wed 05:52:30 PM 33.5625 -85.4797 270° West 419 482 36,000  Level Atlanta Center
Wed 05:53:30 PM 33.5650 -85.6144 271° West 419 482 36,000  Level Atlanta Center
Wed 05:54:30 PM 33.5653 -85.7539 270° West 419 482 36,000  Level Atlanta Center
Wed 05:55:30 PM 33.5636 -85.8686 269° West 406 467 36,000  Level Atlanta Center
Wed 05:56:30 PM 33.5614 -86.0058 269° West 406 467 36,000  Level Atlanta Center
Wed 05:57:30 PM 33.5614 -86.1428 270° West 411 473 36,000  Level Atlanta Center
Wed 05:58:30 PM 33.5611 -86.2800 270° West 411 473 36,000  Level Atlanta Center
Wed 05:59:30 PM 33.5606 -86.4169 270° West 411 473 36,000  Level Atlanta Center
Wed 06:00:30 PM 33.5556 -86.5664 268° West 411 473 36,000  Level Atlanta Center
Wed 06:01:30 PM 33.5525 -86.7033 269° West 411 473 36,000  Level Atlanta Center
Wed 06:02:30 PM 33.5517 -86.8406 270° West 411 473 36,000  Level Atlanta Center
Wed 06:03:30 PM 33.5483 -86.9775 268° West 417 480 36,000  Level Atlanta Center
Wed 06:04:30 PM 33.5472 -87.1144 269° West 417 480 36,000  Level Atlanta Center
Wed 06:05:30 PM 33.5436 -87.2539 268° West 417 480 36,000  Level Atlanta Center
Wed 06:07:09 PM 33.5422 -87.4711 270° West 427 491 36,000  Level Memphis Center
Wed 06:08:09 PM 33.5392 -87.6108 269° West 427 491 36,000  Level Memphis Center
Wed 06:09:09 PM 33.5358 -87.7481 268° West 422 486 36,000  Level Memphis Center
Wed 06:10:09 PM 33.5344 -87.8875 269° West 422 486 36,000  Level Memphis Center
Wed 06:11:09 PM 33.5308 -88.0272 268° West 422 486 36,000  Level Memphis Center
Wed 06:12:09 PM 33.5272 -88.1694 268° West 422 486 36,000  Level Memphis Center
Wed 06:13:09 PM 33.5275 -88.3064 270° West 422 486 36,000  Level Memphis Center
Wed 06:14:09 PM 33.5256 -88.4433 269° West 422 486 36,000  Level Memphis Center
Wed 06:15:09 PM 33.5214 -88.5856 268° West 422 486 36,000  Level Memphis Center
Wed 06:16:09 PM 33.5169 -88.7253 268° West 422 486 36,000  Level Memphis Center
Wed 06:17:09 PM 33.5125 -88.8647 268° West 422 486 36,000  Level Memphis Center
Wed 06:18:09 PM 33.5100 -89.0069 269° West 422 486 36,000  Level Memphis Center
Wed 06:19:09 PM 33.5050 -89.1464 268° West 422 486 36,000  Level Memphis Center
Wed 06:20:09 PM 33.5025 -89.3008 269° West 422 486 36,000  Level Memphis Center
Wed 06:21:09 PM 33.4950 -89.4381 266° West 422 486 36,000  Level Memphis Center
Wed 06:22:09 PM 33.4919 -89.5775 269° West 422 486 36,000  Level Memphis Center
Wed 06:23:09 PM 33.4844 -89.7172 266° West 422 486 36,000  Level Memphis Center
Wed 06:24:09 PM 33.4808 -89.8592 268° West 422 486 36,000  Level Memphis Center
Wed 06:25:09 PM 33.4750 -89.9961 267° West 422 486 36,000  Level Memphis Center
Wed 06:26:09 PM 33.4711 -90.1356 268° West 422 486 36,000  Level Memphis Center
Wed 06:28:09 PM 33.3983 -90.3869 251° West 430 495 36,000  Level Memphis Center
Wed 06:29:09 PM 33.3253 -90.5089 234° Southwest 441 507 36,000  Level Memphis Center
Wed 06:30:09 PM 33.2542 -90.6281 235° Southwest 448 516 36,000  Level Memphis Center
Wed 06:31:09 PM 33.1786 -90.7494 233° Southwest 456 525 36,000  Level Memphis Center
Wed 06:32:09 PM 33.1031 -90.8706 233° Southwest 456 525 36,000  Level Memphis Center
Wed 06:33:09 PM 33.0314 -90.9917 235° Southwest 456 525 36,000  Level Memphis Center
Wed 06:34:09 PM 32.9578 -91.1125 234° Southwest 461 531 36,000  Level Memphis Center
Wed 06:35:09 PM 32.8819 -91.2306 233° Southwest 461 531 36,000  Level Memphis Center
Wed 06:37:20 PM 32.7294 -91.4806 234° Southwest 449 517 36,000  Level Houston Center
Wed 06:38:22 PM 32.6406 -91.6211 233° Southwest 446 513 36,000  Level Houston Center
Wed 06:39:22 PM 32.5697 -91.7417 235° Southwest 448 516 36,000  Level Fort Worth Center
Wed 06:40:21 PM 32.4956 -91.8547 232° Southwest 448 516 36,000  Level Fort Worth Center
Wed 06:42:30 PM 32.3444 -92.0903 233° Southwest 447 514 36,000  Level Houston Center
Wed 06:43:32 PM 32.2692 -92.2053 232° Southwest 445 512 36,000  Level Houston Center
Wed 06:44:34 PM 32.1839 -92.3469 235° Southwest 441 507 36,000  Level Houston Center
Wed 06:45:36 PM 32.1108 -92.4631 233° Southwest 442 509 36,000  Level Houston Center
Wed 06:46:38 PM 32.0367 -92.5783 233° Southwest 443 510 36,000  Level Houston Center
Wed 06:47:40 PM 31.9608 -92.6908 232° Southwest 441 507 36,000  Level Houston Center
Wed 06:48:43 PM 31.8639 -92.7836 219° Southwest 451 519 36,000  Level Houston Center
Wed 06:49:45 PM 31.7683 -92.8769 220° Southwest 449 517 36,000 -48 Level Houston Center
Wed 06:50:47 PM 31.6528 -92.9881 219° Southwest 447 514 35,900  Descending Houston Center
Wed 06:51:49 PM 31.5572 -93.0797 219° Southwest 444 511 36,000 -242 Climbing Houston Center
Wed 06:52:51 PM 31.4600 -93.1722 219° Southwest 450 518 35,400 -774 Descending Houston Center
Wed 06:53:53 PM 31.3633 -93.2650 219° Southwest 450 518 34,400 -1,016 Descending Houston Center
Wed 06:54:55 PM 31.2542 -93.3694 219° Southwest 445 512 33,300 -968 Descending Houston Center
Wed 06:55:57 PM 31.1717 -93.4475 219° Southwest 448 516 32,400 -1,016 Descending Houston Center
Wed 06:56:59 PM 31.0528 -93.5614 219° Southwest 460 529 31,200 -1,113 Descending Houston Center
Wed 06:58:01 PM 30.9508 -93.6572 219° Southwest 471 542 30,100 -1,742 Descending Houston Center
Wed 06:59:03 PM 30.8506 -93.7519 219° Southwest 467 537 27,600 -2,352 Descending Houston Center
Wed 07:00:06 PM 30.7500 -93.8469 219° Southwest 467 537 25,200 -2,592 Descending Houston Center
Wed 07:01:08 PM 30.6311 -93.9594 219° Southwest 463 533 22,200 -2,613 Descending Houston Center
Wed 07:02:10 PM 30.5383 -94.0456 219° Southwest 435 501 19,800 -2,226 Descending Houston Center
Wed 07:03:12 PM 30.4503 -94.1292 219° Southwest 416 479 17,600 -2,300 Descending Houston Center
Wed 07:04:10 PM 30.3558 -94.2153 218° Southwest 401 461 15,200 -2,081 Descending Houston Center
Wed 07:05:16 PM 30.2794 -94.2875 219° Southwest 394 453 13,300 -1,500 Descending Houston Center
Wed 07:06:18 PM 30.1939 -94.3794 223° Southwest 364 419 12,000 -1,161 Descending Houston Center
Wed 07:07:20 PM 30.1600 -94.4694 246° West 312 359 10,900 -968 Descending Houston Center
Wed 07:08:22 PM 30.1319 -94.5414 246° West 292 336 10,000 -1,070 Descending Houston Center
Wed 07:09:29 PM 30.0897 -94.6517 246° West 287 330 8,600 -1,016 Descending Houston Center
Wed 07:10:26 PM 30.0636 -94.7269 248° West 287 330 7,900 -829 Descending Houston Center
Wed 07:11:32 PM 30.0283 -94.8214 247° West 268 308 6,900 -387 Descending Houston Center
Wed 07:12:30 PM 30.0083 -94.8797 248° West 246 283 7,100 -300 Climbing Houston Center
Wed 07:13:32 PM 29.9908 -94.9536 255° West 241 277 6,300 -1,065 Descending Houston Center
Wed 07:14:34 PM 29.9936 -95.0397 272° West 229 264 4,900 -1,210 Descending Houston Center
Wed 07:15:36 PM 29.9933 -95.1058 270° West 214 246 3,800 -1,171 Descending Houston Center
Wed 07:16:37 PM 29.9925 -95.1758 269° West 200 230 2,500 -1,016 Descending Houston Center
Wed 07:17:40 PM 29.9944 -95.2322 272° West 201 231 1,700 -878 Descending Houston Center
Wed 07:18:40 PM 29.9925 -95.2892 268° West 136 157 700 -581 Descending Houston Center
Wed 07:19:44 PM 29.9942 -95.3358 272° West 163 188 500 -188 Descending Houston Center

Login

Don't have an account? Register now (free) for customized features, flight alerts, and more!